Terminal Aerodrome Forecast
Issued by NWS Wilmington, OH

Current Version | Previous Version | Graphics & Text | Print | Product List | Glossary On
Versions: 1 2 3 4 5 6 7 8 9 10 11 12 13 14 15 16 17 18 19 20 21 22
000
FTUS41 KILN 032300
TAFCVG
TAF
KCVG 032337Z 0400/0506 04006KT P6SM VCSH SCT025 BKN040
     FM040500 01005KT P6SM SCT040 BKN080
     FM040700 36004KT 4SM BR SCT015 BKN080
      TEMPO 0409/0412 2SM BR
     FM041300 01005KT P6SM SCT040
     FM041800 32006KT P6SM SCT040
     FM050000 VRB03KT P6SM SCT040=

USA.gov is the U.S. government's official web portal to all federal, state and local government web resources and services.